Time;durP1;ratioP1;P1;durP2;ratioP2;P2;SDS_P1;SDS_P2;PMS_P1;PMS_P2;Temp;Humidity;BMP_temperature;BMP_pressure;BME280_temperature;BME280_humidity;BME280_pressure;Samples;Min_cycle;Max_cycle;Signal;HPM_P1;HPM_P2
2023/12/19 00:00:08;;;;;;;11.20;6.32;;;;;;;7.12;54.29;99899.63;4940960;28;20038;-74
2023/12/19 00:02:34;;;;;;;10.15;6.07;;;;;;;7.16;54.49;99913.31;4940732;28;20490;-73
2023/12/19 00:04:59;;;;;;;9.18;5.65;;;;;;;7.14;54.33;99913.38;4931709;28;20038;-74
2023/12/19 00:07:25;;;;;;;8.63;5.75;;;;;;;7.14;53.96;99912.53;4930704;28;20101;-72
2023/12/19 00:09:51;;;;;;;10.02;5.45;;;;;;;7.14;54.67;99912.53;4930427;28;20055;-74
2023/12/19 00:12:16;;;;;;;9.43;5.03;;;;;;;7.14;54.84;99902.16;4939869;29;20035;-73
2023/12/19 00:14:42;;;;;;;11.77;5.40;;;;;;;7.13;53.88;99885.75;4937502;29;20438;-73
2023/12/19 00:17:07;;;;;;;11.32;5.55;;;;;;;7.06;54.27;99882.53;4954672;29;20039;-71
2023/12/19 00:19:33;;;;;;;9.32;5.68;;;;;;;7.10;54.46;99892.81;4921752;29;20027;-73
2023/12/19 00:21:58;;;;;;;8.57;5.30;;;;;;;7.07;54.29;99889.44;4922083;29;20031;-73
2023/12/19 00:24:23;;;;;;;9.52;5.47;;;;;;;7.07;54.51;99876.47;4937673;29;20395;-73
2023/12/19 00:26:49;;;;;;;8.20;4.80;;;;;;;7.04;54.41;99873.16;4937190;29;20127;-72
2023/12/19 00:29:14;;;;;;;8.27;4.97;;;;;;;7.07;54.78;99876.47;4921603;29;20411;-73
2023/12/19 00:31:40;;;;;;;7.10;4.75;;;;;;;7.03;54.46;99869.69;4921487;29;20039;-73
2023/12/19 00:34:05;;;;;;;9.82;4.85;;;;;;;7.05;54.60;99877.44;4954418;29;20035;-72
2023/12/19 00:36:31;;;;;;;9.48;5.22;;;;;;;6.99;54.40;99870.75;4921588;29;20389;-72
2023/12/19 00:38:56;;;;;;;9.60;4.22;;;;;;;7.03;54.03;99880.09;4921463;29;20035;-72
2023/12/19 00:41:22;;;;;;;7.82;4.32;;;;;;;7.00;54.80;99876.78;4937100;29;20051;-72
2023/12/19 00:43:47;;;;;;;7.50;4.00;;;;;;;7.04;54.41;99893.94;4921107;29;20039;-73
2023/12/19 00:46:13;;;;;;;6.82;3.97;;;;;;;6.98;54.47;99881.22;4905473;29;20407;-73
2023/12/19 00:48:38;;;;;;;6.63;3.80;;;;;;;6.99;54.85;99875.94;4921190;29;20396;-72
2023/12/19 00:51:13;;;;;;;5.65;3.60;;;;;;;6.99;54.39;99880.28;4921333;29;20031;-73
2023/12/19 00:53:38;;;;;;;9.25;4.18;;;;;;;7.02;54.63;99880.16;4905631;29;20093;-73
2023/12/19 00:56:11;;;;;;;6.85;4.05;;;;;;;6.97;54.20;99872.56;4905078;29;20452;-72
2023/12/19 00:58:37;;;;;;;8.40;4.38;;;;;;;7.01;54.71;99884.50;4921258;29;20110;-73
2023/12/19 01:01:03;;;;;;;6.93;4.40;;;;;;;7.00;54.20;99877.63;4905828;29;20056;-73
2023/12/19 01:03:29;;;;;;;7.15;4.20;;;;;;;7.00;54.70;99900.97;4905403;29;20120;-73
2023/12/19 01:05:54;;;;;;;8.35;4.40;;;;;;;6.95;54.52;99882.16;4936778;29;20031;-72
2023/12/19 01:08:20;;;;;;;9.70;4.53;;;;;;;6.99;54.17;99888.94;4905376;29;20106;-73
2023/12/19 01:10:45;;;;;;;8.85;5.00;;;;;;;6.99;54.41;99896.72;4920618;29;20043;-72
2023/12/19 01:13:11;;;;;;;7.32;4.70;;;;;;;6.98;54.05;99892.44;4905283;29;20053;-73
2023/12/19 01:15:36;;;;;;;9.38;4.88;;;;;;;6.97;54.77;99890.72;4920970;29;20047;-72
2023/12/19 01:18:02;;;;;;;9.75;4.88;;;;;;;6.91;54.58;99880.63;4921028;29;20039;-73
2023/12/19 01:20:27;;;;;;;7.72;4.90;;;;;;;6.94;54.60;99885.69;4921122;29;20034;-73
2023/12/19 01:22:53;;;;;;;9.60;6.20;;;;;;;6.93;54.80;99885.75;4936352;29;20043;-72
2023/12/19 01:25:18;;;;;;;10.57;5.90;;;;;;;6.92;54.36;99879.72;4920749;29;20400;-72
2023/12/19 01:27:44;;;;;;;11.27;5.88;;;;;;;6.90;54.42;99865.13;4936825;29;20079;-73
2023/12/19 01:30:09;;;;;;;9.85;5.93;;;;;;;6.87;54.48;99860.91;4921586;29;20035;-73
2023/12/19 01:32:35;;;;;;;7.95;5.13;;;;;;;6.84;54.44;99858.44;4920973;29;20039;-72
2023/12/19 01:35:00;;;;;;;9.30;5.38;;;;;;;6.82;54.77;99852.47;4920776;29;20051;-71
2023/12/19 01:37:26;;;;;;;11.48;5.30;;;;;;;6.82;54.45;99857.66;4905057;29;20062;-73
2023/12/19 01:39:51;;;;;;;8.90;4.80;;;;;;;6.84;54.82;99853.25;4904996;29;20046;-73
2023/12/19 01:42:17;;;;;;;8.02;5.00;;;;;;;6.84;54.45;99858.44;4921150;29;20035;-72
2023/12/19 01:44:45;;;;;;;16.15;5.43;;;;;;;6.83;54.78;99856.75;4920462;29;20032;-73
2023/12/19 01:47:11;;;;;;;8.52;4.95;;;;;;;6.78;54.40;99846.56;4905219;29;20106;-73
2023/12/19 01:49:37;;;;;;;8.55;4.75;;;;;;;6.81;54.41;99855.97;4920406;29;20095;-72
2023/12/19 01:52:03;;;;;;;7.40;4.47;;;;;;;6.77;54.52;99847.47;4936684;29;20038;-73
2023/12/19 01:54:28;;;;;;;7.47;4.68;;;;;;;6.80;54.84;99857.72;4936575;29;20031;-73
2023/12/19 01:56:53;;;;;;;9.20;5.40;;;;;;;6.80;54.54;99847.34;4936561;29;20039;-73
2023/12/19 01:59:19;;;;;;;8.98;5.05;;;;;;;6.79;54.60;99843.06;4920713;29;20491;-73
2023/12/19 02:01:45;;;;;;;10.57;5.13;;;;;;;6.75;54.74;99849.28;4921078;29;20031;-72
2023/12/19 02:04:10;;;;;;;10.27;4.95;;;;;;;6.78;54.38;99858.69;4920644;29;20039;-72
2023/12/19 02:06:36;;;;;;;8.48;5.45;;;;;;;6.78;54.51;99862.13;4920997;29;20396;-73
2023/12/19 02:09:01;;;;;;;8.45;5.32;;;;;;;6.74;54.61;99844.19;4922054;29;20058;-73
2023/12/19 02:11:28;;;;;;;9.85;5.85;;;;;;;6.74;54.65;99849.38;4924027;29;20035;-73
2023/12/19 02:13:56;;;;;;;7.82;5.35;;;;;;;6.77;54.58;99849.22;4939930;29;20447;-72
2023/12/19 02:16:21;;;;;;;9.13;5.73;;;;;;;6.76;54.53;99842.34;4939969;29;20410;-74
2023/12/19 02:19:00;;;;;;;7.63;5.18;;;;;;;6.72;54.74;99846.84;4956813;29;20027;-72
2023/12/19 02:21:25;;;;;;;8.38;5.70;;;;;;;6.68;54.89;99830.53;4908264;29;20035;-73
2023/12/19 02:23:51;;;;;;;9.10;5.88;;;;;;;6.70;54.88;99827.88;4923799;29;20054;-73
2023/12/19 02:26:16;;;;;;;9.20;5.43;;;;;;;6.72;54.58;99827.81;4907599;29;20114;-72
2023/12/19 02:28:42;;;;;;;13.93;6.35;;;;;;;6.70;54.65;99823.56;4939907;29;20027;-73
2023/12/19 02:31:07;;;;;;;10.77;5.85;;;;;;;6.66;54.56;99818.56;4923819;29;20069;-72
2023/12/19 02:33:33;;;;;;;9.98;5.75;;;;;;;6.62;54.79;99817.81;4923573;29;20027;-72
2023/12/19 02:35:58;;;;;;;10.35;5.88;;;;;;;6.65;54.82;99820.28;4939217;29;20038;-74
2023/12/19 02:38:24;;;;;;;9.15;5.55;;;;;;;6.62;54.78;99810.03;4939139;29;20031;-72
2023/12/19 02:40:49;;;;;;;8.27;5.60;;;;;;;6.65;54.79;99814.25;4923330;29;20046;-72
2023/12/19 02:43:15;;;;;;;9.93;5.65;;;;;;;6.59;54.60;99804.16;4956683;29;20031;-73
2023/12/19 02:45:40;;;;;;;11.80;7.03;;;;;;;6.59;54.51;99814.53;4939282;29;20042;-72
2023/12/19 02:48:06;;;;;;;17.40;8.65;;;;;;;6.61;54.84;99821.34;4923309;29;20035;-73
2023/12/19 02:50:31;;;;;;;15.93;8.52;;;;;;;6.60;55.11;99819.66;4939161;29;20039;-73
2023/12/19 02:52:57;;;;;;;18.38;9.20;;;;;;;6.58;54.83;99826.66;4923056;29;20057;-73
2023/12/19 02:55:22;;;;;;;15.48;8.55;;;;;;;6.57;55.04;99822.38;4923647;29;20027;-73
2023/12/19 02:57:48;;;;;;;14.00;7.57;;;;;;;6.51;54.66;99818.31;4923011;29;20102;-73
2023/12/19 03:00:14;;;;;;;12.80;7.25;;;;;;;6.55;54.53;99826.78;4907191;29;20038;-72
2023/12/19 03:02:39;;;;;;;13.35;7.63;;;;;;;6.55;54.95;99828.53;4907481;29;20038;-72
2023/12/19 03:05:05;;;;;;;12.25;6.50;;;;;;;6.54;54.83;99830.28;4922977;29;20063;-73
2023/12/19 03:07:30;;;;;;;12.90;6.90;;;;;;;6.50;54.93;99831.34;4922746;29;20036;-73
2023/12/19 03:09:56;;;;;;;10.43;5.78;;;;;;;6.53;55.10;99828.59;4923199;29;20442;-72
2023/12/19 03:12:21;;;;;;;9.77;5.70;;;;;;;6.52;54.77;99821.72;4955735;29;20086;-73
2023/12/19 03:14:47;;;;;;;9.60;5.70;;;;;;;6.50;54.91;99826.97;4955807;29;20399;-73
2023/12/19 03:17:12;;;;;;;10.02;5.57;;;;;;;6.49;54.81;99824.44;4922677;29;20050;-73
2023/12/19 03:19:38;;;;;;;8.80;5.45;;;;;;;6.50;54.84;99831.34;4906708;29;20387;-74
2023/12/19 03:22:04;;;;;;;10.48;4.60;;;;;;;6.42;55.22;99816.09;4906841;29;20031;-72
2023/12/19 03:24:30;;;;;;;7.60;5.03;;;;;;;6.48;55.08;99826.22;4923075;29;20035;-73
2023/12/19 03:26:55;;;;;;;9.02;5.10;;;;;;;6.45;54.77;99823.75;4906994;29;20054;-73
2023/12/19 03:29:20;;;;;;;7.60;5.00;;;;;;;6.45;54.60;99820.28;4938297;29;20035;-74
2023/12/19 03:31:46;;;;;;;6.35;4.10;;;;;;;6.41;54.83;99810.97;4938670;29;20514;-73
2023/12/19 03:34:11;;;;;;;7.78;4.85;;;;;;;6.37;54.74;99799.84;4922612;29;20031;-73
2023/12/19 03:36:37;;;;;;;6.60;4.35;;;;;;;6.42;55.15;99812.63;4922411;29;20042;-73
2023/12/19 03:39:03;;;;;;;7.30;4.28;;;;;;;6.36;55.13;99810.28;4922449;29;20079;-73
2023/12/19 03:41:29;;;;;;;6.65;3.95;;;;;;;6.36;54.96;99810.28;4938377;29;20039;-72
2023/12/19 03:43:55;;;;;;;6.30;3.80;;;;;;;6.33;55.41;99809.53;4938465;29;20030;-72
2023/12/19 03:46:20;;;;;;;7.22;4.28;;;;;;;6.38;54.81;99822.31;4906321;29;20491;-74
2023/12/19 03:48:46;;;;;;;7.47;3.95;;;;;;;6.37;54.62;99820.59;4938000;29;20035;-73
2023/12/19 03:51:12;;;;;;;6.93;3.90;;;;;;;6.36;55.06;99818.94;4922121;29;20042;-72
2023/12/19 03:53:37;;;;;;;6.60;4.07;;;;;;;6.32;55.45;99818.19;4938273;29;20027;-72
2023/12/19 03:56:03;;;;;;;8.05;3.80;;;;;;;6.36;54.80;99820.66;4922421;29;20157;-73
2023/12/19 03:58:29;;;;;;;7.65;3.78;;;;;;;6.30;55.25;99804.47;4954801;29;20035;-73
2023/12/19 04:00:54;;;;;;;5.75;3.80;;;;;;;6.29;55.12;99796.75;4905945;29;20043;-73
2023/12/19 04:03:20;;;;;;;7.90;4.00;;;;;;;6.36;55.06;99815.47;4922131;29;20073;-73
2023/12/19 04:05:45;;;;;;;7.30;3.92;;;;;;;6.34;55.25;99816.41;4905843;29;20035;-73
2023/12/19 04:08:11;;;;;;;6.68;3.72;;;;;;;6.30;55.38;99806.22;4922204;29;20035;-73
2023/12/19 04:10:36;;;;;;;5.55;3.63;;;;;;;6.30;54.97;99801.88;4906024;29;20522;-72
2023/12/19 04:13:02;;;;;;;7.50;4.43;;;;;;;6.27;55.31;99798.56;4954640;29;20031;-73
2023/12/19 04:15:27;;;;;;;5.70;3.70;;;;;;;6.31;55.02;99811.34;4921810;29;20107;-73
2023/12/19 04:17:52;;;;;;;8.15;4.03;;;;;;;6.30;55.33;99806.22;4937659;29;20090;-73
2023/12/19 04:20:18;;;;;;;10.23;3.70;;;;;;;6.26;55.29;99805.50;4905798;29;20483;-74
2023/12/19 04:22:43;;;;;;;5.75;3.58;;;;;;;6.27;55.63;99812.38;4905879;29;20039;-72
2023/12/19 04:25:09;;;;;;;6.78;3.95;;;;;;;6.22;55.38;99811.72;4921276;29;20047;-72
2023/12/19 04:27:36;;;;;;;6.20;3.90;;;;;;;6.26;54.76;99828.00;4905826;29;20042;-73
2023/12/19 04:30:01;;;;;;;7.30;4.10;;;;;;;6.20;55.14;99816.13;4921352;29;20047;-73
2023/12/19 04:32:27;;;;;;;10.38;4.18;;;;;;;6.23;55.51;99823.78;4904480;29;20043;-73
2023/12/19 04:34:52;;;;;;;11.07;4.32;;;;;;;6.17;55.34;99816.25;4905209;29;20039;-73
2023/12/19 04:37:18;;;;;;;8.88;4.30;;;;;;;6.21;55.75;99820.41;4937319;29;20030;-75
2023/12/19 04:39:43;;;;;;;8.63;4.60;;;;;;;6.19;55.42;99821.38;4937491;29;20047;-75
2023/12/19 04:42:09;;;;;;;7.57;4.30;;;;;;;6.13;55.29;99812.94;4905668;29;20122;-77
2023/12/19 04:44:34;;;;;;;6.97;4.10;;;;;;;6.13;55.58;99817.28;4905557;29;20034;-80
2023/12/19 04:47:00;;;;;;;9.50;4.75;;;;;;;6.13;55.02;99822.47;4921681;29;20046;-78
2023/12/19 04:49:25;;;;;;;8.52;4.78;;;;;;;6.08;54.90;99829.59;4937427;29;20082;-80
2023/12/19 04:51:51;;;;;;;7.55;4.90;;;;;;;6.07;55.59;99836.53;4919641;28;20068;-86
2023/12/19 04:54:17;;;;;;;8.73;5.28;;;;;;;6.11;55.93;99838.09;4926644;28;20037;-86
2023/12/19 04:56:42;;;;;;;8.27;3.45;;;;;;;6.25;65.09;99831.50;4959100;28;20421;-82
2023/12/19 04:59:08;;;;;;;9.23;4.18;;;;;;;6.34;63.45;99842.34;4943979;28;20482;-86
2023/12/19 05:01:34;;;;;;;7.00;3.92;;;;;;;6.32;62.06;99844.13;4974594;28;20089;-87
2023/12/19 05:03:59;;;;;;;6.32;4.05;;;;;;;6.27;60.99;99843.50;4944923;28;20039;-88
2023/12/19 05:06:25;;;;;;;7.18;3.80;;;;;;;6.32;63.46;99848.50;4942626;28;20034;-79
2023/12/19 05:08:50;;;;;;;11.43;3.80;;;;;;;6.29;61.96;99838.25;4927214;28;20050;-88
2023/12/19 05:11:16;;;;;;;8.40;3.92;;;;;;;6.24;61.83;99838.41;4943084;28;20082;-78
2023/12/19 05:13:41;;;;;;;7.55;3.35;;;;;;;6.20;61.32;99844.66;4974160;28;20456;-84
2023/12/19 05:16:14;;;;;;;8.38;4.65;;;;;;;6.13;60.28;99843.19;4940881;28;20033;-85
2023/12/19 05:18:43;;;;;;;7.65;3.90;;;;;;;6.10;60.24;99844.19;4943925;28;20069;-86
2023/12/19 05:21:09;;;;;;;8.10;4.13;;;;;;;6.08;59.82;99845.97;4945703;28;20034;-89
2023/12/19 05:23:35;;;;;;;6.30;3.63;;;;;;;6.02;60.10;99842.78;4942097;28;20033;-87
2023/12/19 05:26:02;;;;;;;7.13;4.07;;;;;;;6.02;59.19;99851.41;4940399;28;20122;-88
2023/12/19 05:28:27;;;;;;;5.90;3.22;;;;;;;6.02;59.48;99860.94;4939883;28;20039;-82
2023/12/19 05:30:56;;;;;;;7.20;3.75;;;;;;;6.00;58.65;99863.59;4940340;28;20039;-81
2023/12/19 05:33:26;;;;;;;6.65;3.92;;;;;;;6.01;58.71;99865.28;4940811;28;20043;-81
2023/12/19 05:35:52;;;;;;;6.65;3.45;;;;;;;5.93;58.19;99856.91;4924359;28;20035;-82
2023/12/19 05:38:18;;;;;;;6.60;3.88;;;;;;;5.94;58.53;99863.78;4924480;28;20126;-83
2023/12/19 05:40:43;;;;;;;6.15;3.80;;;;;;;6.01;58.16;99867.88;4956394;28;20041;-81
2023/12/19 05:43:09;;;;;;;6.50;3.78;;;;;;;5.96;58.42;99859.38;4926275;28;20027;-81
2023/12/19 05:45:35;;;;;;;6.72;3.15;;;;;;;5.97;58.38;99861.94;4928084;28;20023;-82
2023/12/19 05:48:00;;;;;;;6.38;3.25;;;;;;;5.97;58.11;99861.94;4943711;28;20034;-81
2023/12/19 05:50:26;;;;;;;7.15;3.50;;;;;;;6.07;57.80;99877.16;4944381;28;20402;-81
2023/12/19 05:52:52;;;;;;;7.72;3.97;;;;;;;6.26;57.56;99872.94;4927898;28;20602;-81
2023/12/19 05:55:19;;;;;;;6.65;3.78;;;;;;;6.62;56.49;99880.09;4928120;28;20049;-82
2023/12/19 05:57:45;;;;;;;5.88;3.05;;;;;;;7.07;55.48;99873.84;4927356;28;20039;-82
2023/12/19 06:00:11;;;;;;;5.55;3.30;;;;;;;7.63;53.91;99884.38;4959740;28;20154;-82
2023/12/19 06:02:36;;;;;;;4.53;2.70;;;;;;;8.21;52.63;99869.56;4921781;28;20034;-82
2023/12/19 06:05:07;;;;;;;4.78;2.90;;;;;;;8.93;51.74;99875.56;4913072;28;20097;-79
2023/12/19 06:07:36;;;;;;;5.53;3.20;;;;;;;9.65;49.99;99869.16;4943500;28;20071;-79
2023/12/19 06:10:12;;;;;;;9.90;3.67;;;;;;;10.44;48.45;99872.66;4927657;28;20042;-83
2023/12/19 06:12:37;;;;;;;5.85;3.55;;;;;;;11.23;46.27;99866.25;4958990;28;20506;-82
2023/12/19 06:15:08;;;;;;;6.25;3.97;;;;;;;12.03;44.72;99874.34;4926760;28;20042;-83
2023/12/19 06:17:38;;;;;;;6.22;3.92;;;;;;;12.81;42.91;99878.84;4928283;28;20126;-81
2023/12/19 06:20:05;;;;;;;7.65;4.25;;;;;;;13.68;40.95;99875.56;4960149;28;20034;-82
2023/12/19 06:22:31;;;;;;;7.03;4.57;;;;;;;14.62;39.22;99879.25;4943399;28;20050;-82
2023/12/19 06:24:58;;;;;;;8.63;4.75;;;;;;;15.56;37.50;99879.97;4943056;28;20394;-82
2023/12/19 06:27:24;;;;;;;9.90;5.07;;;;;;;16.53;35.74;99876.59;4927054;28;20027;-83
2023/12/19 06:29:49;;;;;;;7.47;5.00;;;;;;;17.40;33.92;99873.66;4929625;28;20077;-83
2023/12/19 06:32:15;;;;;;;12.38;5.82;;;;;;;18.33;32.61;99879.56;4915305;28;20129;-82
2023/12/19 06:34:40;;;;;;;11.45;6.13;;;;;;;19.18;31.15;99871.75;4937044;28;20042;-82
2023/12/19 06:37:06;;;;;;;9.48;6.63;;;;;;;20.09;29.89;99872.88;4942757;28;20494;-82
2023/12/19 06:39:31;;;;;;;9.07;6.75;;;;;;;20.86;28.74;99876.69;4926903;28;20042;-82
2023/12/19 06:41:57;;;;;;;10.35;7.25;;;;;;;21.53;27.52;99867.25;4944511;28;20027;-76
2023/12/19 06:44:22;;;;;;;8.38;6.40;;;;;;;22.04;28.92;99871.56;4960240;28;20063;-77
2023/12/19 06:46:50;;;;;;;9.80;6.53;;;;;;;22.56;27.70;99873.09;4926479;28;20037;-76
2023/12/19 06:49:19;;;;;;;10.25;7.25;;;;;;;22.93;26.80;99871.72;4942016;28;20047;-73
2023/12/19 06:51:44;;;;;;;11.75;7.55;;;;;;;23.22;26.73;99866.88;4958239;28;20035;-74
2023/12/19 06:54:10;;;;;;;13.88;8.18;;;;;;;23.37;25.85;99865.16;4925940;28;20030;-76
2023/12/19 06:56:35;;;;;;;8.60;5.55;;;;;;;23.38;29.97;99866.78;4943683;28;20030;-80
2023/12/19 06:59:02;;;;;;;11.45;7.30;;;;;;;23.27;29.74;99867.16;4929519;28;20039;-76
2023/12/19 07:01:27;;;;;;;13.85;7.63;;;;;;;23.20;30.73;99859.03;4926361;28;20030;-72
2023/12/19 07:03:53;;;;;;;14.02;8.60;;;;;;;23.22;29.56;99870.34;4941897;28;20130;-72
2023/12/19 07:06:19;;;;;;;13.88;8.70;;;;;;;22.99;29.30;99859.53;4941438;28;20049;-74
2023/12/19 07:08:44;;;;;;;12.13;8.77;;;;;;;22.76;29.46;99862.09;4925374;28;20035;-75
2023/12/19 07:11:10;;;;;;;17.42;9.57;;;;;;;22.64;29.18;99856.28;4926052;28;20106;-74
2023/12/19 07:13:35;;;;;;;14.15;9.32;;;;;;;22.60;28.94;99852.31;4942267;28;20053;-73
2023/12/19 07:16:02;;;;;;;12.05;7.93;;;;;;;22.45;30.48;99860.13;4926064;28;20129;-74
2023/12/19 07:18:28;;;;;;;15.98;7.95;;;;;;;22.38;31.61;99859.16;4956826;28;20045;-72
2023/12/19 07:20:53;;;;;;;13.38;6.65;;;;;;;22.30;31.90;99851.16;4950302;28;20038;-73
2023/12/19 07:23:19;;;;;;;20.65;8.00;;;;;;;22.34;31.12;99849.81;4927072;29;20074;-75
2023/12/19 07:25:44;;;;;;;11.98;7.90;;;;;;;22.35;30.76;99849.66;4937728;29;20050;-72
2023/12/19 07:28:10;;;;;;;12.60;7.50;;;;;;;22.38;30.27;99851.16;4938302;29;20475;-72
2023/12/19 07:30:35;;;;;;;11.15;8.35;;;;;;;22.45;29.68;99833.53;4922942;29;20066;-74
2023/12/19 07:33:01;;;;;;;12.85;8.20;;;;;;;22.61;29.24;99827.34;4922748;29;20031;-74
2023/12/19 07:35:26;;;;;;;17.33;8.32;;;;;;;22.84;28.68;99840.78;4922470;29;20031;-72
2023/12/19 07:37:52;;;;;;;13.35;8.57;;;;;;;22.97;28.10;99842.09;4955344;29;20042;-71
2023/12/19 07:40:17;;;;;;;11.50;7.60;;;;;;;23.08;27.64;99847.91;4922103;29;20051;-73
2023/12/19 07:42:44;;;;;;;12.80;8.82;;;;;;;23.16;27.41;99846.22;4906332;29;20388;-76
2023/12/19 07:45:10;;;;;;;15.50;8.63;;;;;;;23.31;27.25;99863.16;4950059;28;20043;-77
2023/12/19 07:47:36;;;;;;;14.10;8.30;;;;;;;23.45;26.86;99861.59;4912933;29;20063;-78
2023/12/19 07:50:02;;;;;;;13.60;7.93;;;;;;;23.59;27.07;99862.69;4913580;28;20034;-73
2023/12/19 07:52:28;;;;;;;17.08;6.95;;;;;;;23.74;29.17;99866.28;4941132;28;20025;-74
2023/12/19 07:54:54;;;;;;;11.88;5.93;;;;;;;23.87;30.10;99856.94;4923112;28;20027;-73
2023/12/19 07:57:20;;;;;;;16.08;5.93;;;;;;;23.99;30.09;99859.00;4929081;29;20023;-75
2023/12/19 07:59:46;;;;;;;11.38;5.95;;;;;;;24.05;30.05;99844.13;4931504;28;20034;-75
2023/12/19 08:02:12;;;;;;;10.15;5.75;;;;;;;24.13;30.62;99851.22;4920868;29;20035;-74
2023/12/19 08:04:37;;;;;;;10.70;5.70;;;;;;;24.12;30.50;99855.75;4910987;28;20026;-76
2023/12/19 08:07:04;;;;;;;12.60;5.82;;;;;;;24.16;30.39;99849.06;4923165;28;20067;-83
2023/12/19 08:09:30;;;;;;;7.30;5.45;;;;;;;24.17;30.39;99852.56;4923468;28;20491;-78
2023/12/19 08:11:56;;;;;;;11.25;6.38;;;;;;;24.22;30.35;99860.03;4957607;28;20037;-78
2023/12/19 08:14:22;;;;;;;12.05;6.78;;;;;;;24.25;30.52;99857.00;4924665;28;20042;-78
2023/12/19 08:16:48;;;;;;;11.05;7.30;;;;;;;24.28;30.15;99845.97;4923938;28;20511;-81
2023/12/19 08:19:16;;;;;;;13.48;7.45;;;;;;;24.31;30.56;99851.75;4925257;28;20137;-81
2023/12/19 08:21:51;;;;;;;15.50;7.75;;;;;;;24.32;30.28;99837.44;4941379;28;20031;-84
2023/12/19 08:24:17;;;;;;;15.13;8.30;;;;;;;24.44;30.42;99851.16;4941189;28;20508;-81
2023/12/19 08:26:47;;;;;;;25.85;8.30;;;;;;;24.45;30.48;99838.63;4938256;28;20055;-81
2023/12/19 08:29:13;;;;;;;19.65;8.52;;;;;;;24.52;30.39;99837.72;4946000;29;20087;-77
2023/12/19 08:31:38;;;;;;;24.63;8.77;;;;;;;24.62;29.75;99837.53;4905937;29;20035;-76
2023/12/19 08:34:04;;;;;;;21.33;7.47;;;;;;;24.69;30.87;99837.63;4937484;29;20046;-73
2023/12/19 08:36:29;;;;;;;29.38;9.15;;;;;;;24.80;29.99;99847.03;4937467;29;20031;-77
2023/12/19 08:38:55;;;;;;;23.50;7.22;;;;;;;24.87;29.94;99831.94;4915672;28;20049;-80
2023/12/19 08:41:20;;;;;;;30.50;9.60;;;;;;;24.94;30.18;99830.19;4940586;28;20074;-78
2023/12/19 08:43:48;;;;;;;27.67;9.43;;;;;;;25.08;29.51;99826.69;4951608;28;20031;-78
2023/12/19 08:46:17;;;;;;;26.15;8.80;;;;;;;25.26;29.76;99820.13;4936093;29;20039;-76
2023/12/19 08:48:43;;;;;;;26.40;8.95;;;;;;;25.41;29.22;99823.66;4921563;28;20047;-78
2023/12/19 08:51:10;;;;;;;23.83;9.20;;;;;;;25.68;29.63;99818.59;4940163;28;20031;-79
2023/12/19 08:53:36;;;;;;;21.88;8.20;;;;;;;26.25;28.47;99805.38;4941248;28;20035;-77
2023/12/19 08:56:01;;;;;;;24.90;9.60;;;;;;;26.74;27.42;99806.38;4940839;28;20035;-84
2023/12/19 08:58:27;;;;;;;21.52;10.20;;;;;;;27.29;25.95;99799.22;4924678;28;20039;-74
2023/12/19 09:00:54;;;;;;;25.13;9.88;;;;;;;27.58;25.87;99803.50;4973796;28;20037;-71
2023/12/19 09:03:19;;;;;;;22.20;10.55;;;;;;;27.96;24.35;99800.28;4925750;28;20071;-86
2023/12/19 09:05:46;;;;;;;17.55;12.50;;;;;;;28.20;23.64;99784.59;4924710;28;20023;-78
2023/12/19 09:08:11;;;;;;;21.17;11.90;;;;;;;28.27;22.96;99782.72;4971316;28;20049;-79
2023/12/19 09:10:37;;;;;;;24.80;11.25;;;;;;;28.41;22.88;99772.81;4956308;28;20034;-79
2023/12/19 09:13:02;;;;;;;21.92;10.55;;;;;;;28.22;22.82;99755.69;4956032;28;20046;-80
2023/12/19 09:15:28;;;;;;;21.10;10.43;;;;;;;28.31;23.37;99765.19;4940446;28;20034;-79
2023/12/19 09:17:53;;;;;;;25.92;10.80;;;;;;;28.28;23.22;99765.59;4940642;28;20042;-84
2023/12/19 09:20:21;;;;;;;23.13;9.38;;;;;;;28.23;23.52;99764.56;4960369;28;20038;-83
2023/12/19 09:22:46;;;;;;;22.25;9.18;;;;;;;28.14;23.75;99756.72;4961364;28;20034;-87
2023/12/19 09:25:15;;;;;;;24.08;10.50;;;;;;;27.81;23.88;99756.69;4928857;28;20134;-79
2023/12/19 09:27:44;;;;;;;31.77;10.15;;;;;;;27.57;24.82;99748.19;4961869;28;20031;-78
2023/12/19 09:30:10;;;;;;;20.20;10.95;;;;;;;27.83;24.13;99748.44;4927797;28;20046;-78
2023/12/19 09:32:40;;;;;;;24.92;11.07;;;;;;;27.94;23.62;99740.66;4927020;28;20030;-84
2023/12/19 09:35:06;;;;;;;26.98;11.23;;;;;;;28.15;23.18;99746.84;4927063;28;20049;-80
2023/12/19 09:37:31;;;;;;;20.65;11.35;;;;;;;28.62;22.41;99731.50;4942013;28;20049;-80
2023/12/19 09:39:57;;;;;;;21.40;11.55;;;;;;;29.35;21.36;99733.06;4942904;28;20410;-78
2023/12/19 09:42:22;;;;;;;21.05;11.60;;;;;;;29.86;20.71;99734.00;4942547;28;20038;-80
2023/12/19 09:44:48;;;;;;;25.85;10.70;;;;;;;30.46;20.62;99732.66;4942535;28;20057;-77
2023/12/19 09:47:23;;;;;;;21.05;11.32;;;;;;;31.21;19.44;99727.00;4957982;28;20089;-78
2023/12/19 09:49:51;;;;;;;18.85;11.18;;;;;;;31.69;18.77;99727.16;4958619;28;20031;-72
2023/12/19 09:52:17;;;;;;;23.48;12.07;;;;;;;32.20;18.38;99720.31;4926771;28;20493;-70
2023/12/19 09:54:42;;;;;;;17.48;12.05;;;;;;;32.58;17.78;99715.47;4942119;28;20023;-72
2023/12/19 09:57:08;;;;;;;18.75;11.30;;;;;;;33.04;17.13;99715.59;4942026;28;20034;-72
2023/12/19 09:59:35;;;;;;;17.60;12.18;;;;;;;33.45;16.98;99702.84;4942289;28;20035;-70
2023/12/19 10:02:00;;;;;;;20.25;12.93;;;;;;;33.89;16.52;99708.47;4941973;28;20031;-70
2023/12/19 10:04:27;;;;;;;20.33;12.20;;;;;;;34.22;16.03;99704.03;4958410;28;20027;-74
2023/12/19 10:06:54;;;;;;;18.63;13.07;;;;;;;34.41;15.82;99702.72;4958220;28;20395;-71
2023/12/19 10:09:21;;;;;;;22.55;13.90;;;;;;;34.60;15.14;99694.28;4958108;28;20033;-72
2023/12/19 10:11:48;;;;;;;19.33;12.82;;;;;;;34.61;15.23;99690.50;4941277;28;20050;-71
2023/12/19 10:14:14;;;;;;;26.05;13.45;;;;;;;34.65;15.07;99688.94;4975156;28;20093;-70
2023/12/19 10:16:43;;;;;;;23.65;14.00;;;;;;;34.45;15.80;99681.34;4942460;28;20070;-71
2023/12/19 10:19:11;;;;;;;22.00;13.50;;;;;;;34.17;15.46;99672.28;4958259;28;20029;-71
2023/12/19 10:21:37;;;;;;;22.65;14.20;;;;;;;33.70;16.09;99675.38;4957928;28;20093;-73
2023/12/19 10:24:11;;;;;;;21.88;13.77;;;;;;;33.02;16.29;99675.28;4941390;28;20062;-72
2023/12/19 10:26:37;;;;;;;21.08;13.43;;;;;;;32.32;17.24;99670.84;4902416;28;1198810;-71
2023/12/19 10:29:02;;;;;;;23.48;14.70;;;;;;;31.56;17.92;99672.38;4957742;28;20545;-71
2023/12/19 10:31:28;;;;;;;21.77;14.43;;;;;;;30.84;18.89;99665.03;4958034;28;20054;-71
2023/12/19 10:33:56;;;;;;;27.15;14.80;;;;;;;30.25;19.16;99663.84;4957922;28;20078;-70
2023/12/19 10:36:30;;;;;;;35.10;16.40;;;;;;;29.56;20.03;99672.72;4943463;28;20066;-73
2023/12/19 10:38:58;;;;;;;23.38;15.18;;;;;;;29.02;20.47;99657.97;4942743;28;20049;-71
2023/12/19 10:41:30;;;;;;;26.33;16.75;;;;;;;28.49;20.91;99649.06;4926606;28;20038;-71
2023/12/19 10:43:57;;;;;;;23.83;16.25;;;;;;;28.10;21.41;99641.94;4942403;28;20062;-73
2023/12/19 10:46:27;;;;;;;30.30;16.37;;;;;;;27.68;21.80;99636.81;4942613;28;20109;-71
2023/12/19 10:48:54;;;;;;;28.00;16.40;;;;;;;27.37;22.38;99637.41;4942610;28;20039;-72
2023/12/19 10:51:33;;;;;;;23.67;16.33;;;;;;;27.08;22.66;99639.41;4942768;28;20438;-72
2023/12/19 10:54:12;;;;;;;30.33;17.13;;;;;;;26.79;23.03;99641.38;4959651;28;20274;-69
2023/12/19 10:56:53;;;;;;;33.65;16.88;;;;;;;26.58;23.15;99636.13;4958851;28;20033;-70
2023/12/19 10:59:49;;;;;;;29.85;16.85;;;;;;;26.36;23.63;99625.50;4975513;28;20027;-75
2023/12/19 11:02:43;;;;;;;27.40;16.58;;;;;;;26.15;23.97;99629.09;4975488;28;20039;-70
2023/12/19 11:05:20;;;;;;;32.42;17.35;;;;;;;25.94;23.92;99619.28;4975325;28;20026;-70
2023/12/19 11:07:46;;;;;;;27.02;17.27;;;;;;;25.72;24.30;99602.47;4958379;28;20110;-74
2023/12/19 11:10:12;;;;;;;24.48;16.95;;;;;;;25.55;24.31;99608.06;4942033;28;20550;-72
2023/12/19 11:12:38;;;;;;;27.63;17.55;;;;;;;25.34;24.61;99600.91;4941993;28;20038;-70
2023/12/19 11:15:05;;;;;;;31.05;17.30;;;;;;;25.14;25.12;99595.34;4958408;28;20033;-72
2023/12/19 11:17:44;;;;;;;27.27;17.02;;;;;;;24.95;25.17;99593.31;4942301;28;20038;-72
2023/12/19 11:20:15;;;;;;;32.33;16.85;;;;;;;24.80;25.22;99596.06;4942750;28;20029;-70
2023/12/19 11:23:01;;;;;;;32.72;18.02;;;;;;;24.56;25.69;99585.50;4942147;28;20047;-71
2023/12/19 11:25:38;;;;;;;31.95;17.35;;;;;;;24.36;25.84;99589.75;4959960;28;20062;-72
2023/12/19 11:28:04;;;;;;;28.30;17.08;;;;;;;24.22;26.00;99586.06;4941675;28;20035;-74